createdAt,value
2019-05-28T00:00:38.095Z,3.33
2019-05-28T00:03:07.187Z,4.73
2019-05-28T00:05:36.301Z,3.93
2019-05-28T00:08:05.685Z,5.30
2019-05-28T00:10:34.755Z,4.47
2019-05-28T00:13:03.898Z,4.30
2019-05-28T00:15:33.335Z,4.10
2019-05-28T00:18:02.459Z,3.63
2019-05-28T00:20:31.649Z,6.40
2019-05-28T00:23:00.883Z,6.80
2019-05-28T00:25:30.026Z,5.83
2019-05-28T00:27:59.398Z,4.10
2019-05-28T00:30:28.567Z,4.13
2019-05-28T00:32:57.870Z,4.47
2019-05-28T00:35:26.986Z,3.97
2019-05-28T00:37:56.207Z,3.27
2019-05-28T00:40:25.482Z,5.20
2019-05-28T00:42:54.625Z,3.87
2019-05-28T00:45:23.997Z,3.90
2019-05-28T00:47:53.117Z,4.87
2019-05-28T00:50:22.319Z,5.80
2019-05-28T00:52:51.581Z,4.67
2019-05-28T00:55:20.829Z,4.30
2019-05-28T00:57:50.306Z,4.93
2019-05-28T01:00:36.631Z,4.50
2019-05-28T01:02:57.215Z,4.40
2019-05-28T01:05:26.420Z,4.93
2019-05-28T01:07:55.749Z,5.17
2019-05-28T01:10:24.882Z,4.90
2019-05-28T01:12:54.324Z,5.30
2019-05-28T01:15:23.391Z,4.83
2019-05-28T01:17:52.508Z,4.63
2019-05-28T01:20:22.056Z,6.00
2019-05-28T01:22:51.067Z,5.37
2019-05-28T01:25:20.301Z,5.90
2019-05-28T01:27:49.467Z,7.97
2019-05-28T01:30:18.922Z,7.53
2019-05-28T01:32:47.980Z,7.90
2019-05-28T01:35:17.092Z,7.90
2019-05-28T01:37:46.369Z,8.50
2019-05-28T01:40:15.565Z,8.40
2019-05-28T01:42:44.717Z,8.30
2019-05-28T01:45:15.811Z,7.70
2019-05-28T01:47:44.833Z,8.20
2019-05-28T01:50:14.175Z,9.37
2019-05-28T01:52:43.226Z,9.27
2019-05-28T01:55:12.260Z,8.07
2019-05-28T01:57:41.365Z,8.37
2019-05-28T02:00:10.562Z,9.47
2019-05-28T02:02:39.614Z,10.43
2019-05-28T02:05:09.364Z,11.13
2019-05-28T02:07:38.424Z,10.57
2019-05-28T02:10:08.504Z,11.33
2019-05-28T02:12:37.584Z,10.93
2019-05-28T02:15:07.147Z,10.07
2019-05-28T02:17:36.206Z,10.37
2019-05-28T02:20:06.356Z,10.80
2019-05-28T02:22:35.428Z,11.33
2019-05-28T02:25:04.804Z,10.27
2019-05-28T02:27:34.010Z,10.47
2019-05-28T02:30:03.472Z,11.77
2019-05-28T02:32:32.592Z,11.53
2019-05-28T02:35:01.636Z,12.57
2019-05-28T02:37:30.711Z,12.13
2019-05-28T02:39:59.862Z,11.93
2019-05-28T02:42:29.039Z,9.70
2019-05-28T02:44:58.259Z,10.50
2019-05-28T02:47:27.442Z,10.77
2019-05-28T02:49:56.792Z,10.77
2019-05-28T02:52:26.937Z,11.27
2019-05-28T02:54:56.178Z,10.50
2019-05-28T02:57:25.294Z,11.30
2019-05-28T02:59:54.550Z,10.50
2019-05-28T03:02:25.138Z,10.37
2019-05-28T03:04:56.167Z,9.50
2019-05-28T03:07:25.747Z,8.93
2019-05-28T03:09:56.739Z,8.90
2019-05-28T03:12:25.795Z,9.00
2019-05-28T03:14:54.857Z,9.30
2019-05-28T03:17:24.511Z,9.50
2019-05-28T03:19:53.703Z,8.83
2019-05-28T03:22:23.456Z,9.53
2019-05-28T03:24:52.866Z,8.63
2019-05-28T03:27:21.903Z,8.20
2019-05-28T03:29:51.158Z,7.10
2019-05-28T03:32:20.236Z,7.23
2019-05-28T03:34:49.462Z,7.13
2019-05-28T03:37:20.088Z,7.50
2019-05-28T03:39:50.967Z,5.10
2019-05-28T03:42:20.080Z,4.43
2019-05-28T03:44:49.334Z,5.00
2019-05-28T03:47:18.472Z,4.57
2019-05-28T03:49:48.051Z,4.50
2019-05-28T03:52:17.105Z,5.63
2019-05-28T03:54:46.201Z,4.03
2019-05-28T03:57:15.416Z,3.80
2019-05-28T03:59:44.674Z,4.40
2019-05-28T04:02:23.243Z,5.40
2019-05-28T04:04:44.585Z,4.93
2019-05-28T04:07:13.611Z,5.13
2019-05-28T04:09:42.701Z,5.10
2019-05-28T04:12:11.717Z,4.77
2019-05-28T04:14:40.926Z,8.97
2019-05-28T04:17:10.139Z,5.00
2019-05-28T04:19:39.452Z,5.30
2019-05-28T04:22:08.562Z,5.80
2019-05-28T04:24:38.132Z,5.53
2019-05-28T04:27:07.197Z,6.37
2019-05-28T04:29:36.335Z,6.00
2019-05-28T04:32:05.564Z,5.87
2019-05-28T04:34:34.727Z,5.70
2019-05-28T04:37:03.986Z,6.37
2019-05-28T04:39:35.490Z,6.97
2019-05-28T04:42:04.322Z,6.20
2019-05-28T04:44:33.619Z,6.50
2019-05-28T04:47:02.740Z,7.20
2019-05-28T04:49:31.973Z,8.17
2019-05-28T04:52:01.086Z,8.33
2019-05-28T04:54:30.418Z,10.10
2019-05-28T04:56:59.929Z,7.50
2019-05-28T04:59:28.949Z,5.97
2019-05-28T05:01:58.140Z,6.50
2019-05-28T05:04:27.399Z,6.20
2019-05-28T05:06:56.507Z,5.90
2019-05-28T05:09:25.885Z,7.60
2019-05-28T05:11:54.983Z,7.07
2019-05-28T05:14:24.219Z,6.30
2019-05-28T05:16:53.530Z,7.30
2019-05-28T05:19:22.683Z,9.33
2019-05-28T05:21:51.895Z,6.73
2019-05-28T05:24:21.082Z,6.87
2019-05-28T05:26:52.869Z,8.60
2019-05-28T05:29:21.201Z,7.17
2019-05-28T05:31:50.266Z,7.37
2019-05-28T05:34:19.359Z,7.00
2019-05-28T05:36:48.410Z,6.97
2019-05-28T05:39:17.453Z,5.53
2019-05-28T05:41:46.660Z,6.20
2019-05-28T05:44:16.038Z,9.60
2019-05-28T05:46:45.051Z,6.07
2019-05-28T05:49:14.216Z,6.20
2019-05-28T05:51:43.459Z,6.00
2019-05-28T05:54:12.913Z,7.90
2019-05-28T05:56:42.078Z,6.70
2019-05-28T05:59:11.152Z,7.00
2019-05-28T06:01:40.255Z,9.53
2019-05-28T06:04:09.354Z,8.67
2019-05-28T06:06:38.400Z,9.20
2019-05-28T06:09:08.588Z,7.00
2019-05-28T06:11:37.635Z,9.93
2019-05-28T06:14:06.710Z,9.47
2019-05-28T06:16:35.800Z,7.93
2019-05-28T06:19:04.957Z,9.03
2019-05-28T06:21:34.231Z,7.73
2019-05-28T06:24:03.410Z,8.90
2019-05-28T06:26:32.546Z,8.33
2019-05-28T06:29:01.926Z,9.53
2019-05-28T06:31:31.028Z,7.53
2019-05-28T06:34:00.404Z,9.30
2019-05-28T06:36:29.505Z,8.27
2019-05-28T06:38:58.669Z,7.60
2019-05-28T06:41:27.990Z,7.73
2019-05-28T06:43:57.333Z,7.37
2019-05-28T06:46:26.490Z,8.30
2019-05-28T06:48:55.636Z,9.03
2019-05-28T06:51:24.817Z,7.90
2019-05-28T06:53:54.087Z,8.47
2019-05-28T06:56:23.256Z,10.43
2019-05-28T06:58:52.512Z,7.30
2019-05-28T07:01:22.422Z,7.13
2019-05-28T07:03:51.491Z,9.50
2019-05-28T07:06:20.527Z,6.77
2019-05-28T07:08:49.556Z,7.93
2019-05-28T07:11:18.717Z,7.13
2019-05-28T07:13:47.793Z,8.70
2019-05-28T07:16:17.046Z,8.87
2019-05-28T07:18:46.205Z,6.93
2019-05-28T07:21:15.464Z,8.83
2019-05-28T07:23:44.767Z,11.47
2019-05-28T07:26:13.926Z,7.00
2019-05-28T07:28:43.101Z,6.40
2019-05-28T07:31:12.501Z,10.00
2019-05-28T07:33:41.626Z,6.30
2019-05-28T07:36:10.929Z,8.67
2019-05-28T07:38:40.026Z,8.80
2019-05-28T07:41:09.297Z,7.67
2019-05-28T07:43:38.604Z,9.37
2019-05-28T07:46:07.746Z,8.00
2019-05-28T07:48:36.981Z,8.00
2019-05-28T07:51:06.119Z,7.60
2019-05-28T07:53:40.152Z,6.53
2019-05-28T07:56:06.180Z,5.70
2019-05-28T07:58:35.246Z,7.80
2019-05-28T08:13:45.289Z,5.90
2019-05-28T08:16:18.744Z,6.77
2019-05-28T08:18:45.634Z,5.67
2019-05-28T08:21:14.913Z,7.50
2019-05-28T08:23:44.069Z,8.57
2019-05-28T08:26:13.325Z,7.83
2019-05-28T08:28:43.815Z,7.30
2019-05-28T08:31:16.527Z,4.73
2019-05-28T08:33:44.093Z,6.73
2019-05-28T08:36:13.382Z,14.60
2019-05-28T08:38:42.453Z,8.43
2019-05-28T08:41:11.499Z,5.83
2019-05-28T08:43:40.789Z,5.60
2019-05-28T08:46:10.152Z,7.70
2019-05-28T08:48:39.229Z,5.17
2019-05-28T08:51:10.382Z,5.80
2019-05-28T08:53:39.165Z,4.43
2019-05-28T08:56:08.236Z,7.10
2019-05-28T08:58:39.559Z,6.27
2019-05-28T09:01:08.699Z,5.80
2019-05-28T09:03:37.872Z,6.07
2019-05-28T09:06:06.890Z,3.90
2019-05-28T09:08:39.575Z,5.87
2019-05-28T09:11:07.808Z,5.40
2019-05-28T09:13:37.433Z,6.40
2019-05-28T09:16:06.458Z,9.50
2019-05-28T09:18:35.810Z,5.80
2019-05-28T09:21:05.094Z,8.77
2019-05-28T09:23:34.239Z,6.17
2019-05-28T09:26:03.514Z,9.83
2019-05-28T09:28:33.782Z,6.10
2019-05-28T09:31:02.865Z,4.93
2019-05-28T09:33:32.159Z,4.90
2019-05-28T09:36:08.837Z,4.03
2019-05-28T09:38:33.501Z,3.30
2019-05-28T09:41:05.975Z,8.70
2019-05-28T09:43:34.930Z,6.10
2019-05-28T09:46:04.679Z,3.90
2019-05-28T09:48:33.778Z,4.83
2019-05-28T09:51:03.008Z,6.03
2019-05-28T09:53:34.832Z,4.53
2019-05-28T09:56:02.917Z,8.47
2019-05-28T09:58:32.099Z,5.53
2019-05-28T10:01:01.531Z,4.93
2019-05-28T10:03:30.676Z,6.87
2019-05-28T10:06:15.557Z,4.47
2019-05-28T10:08:30.804Z,8.37
2019-05-28T10:11:00.157Z,6.47
2019-05-28T10:13:38.881Z,6.93
2019-05-28T10:16:00.828Z,3.80
2019-05-28T10:18:29.951Z,8.57
2019-05-28T10:21:14.612Z,4.27
2019-05-28T10:23:30.147Z,4.63
2019-05-28T10:25:59.604Z,5.10
2019-05-28T10:28:29.666Z,5.87
2019-05-28T10:30:58.725Z,3.93
2019-05-28T10:33:28.167Z,3.50
2019-05-28T10:35:57.357Z,5.40
2019-05-28T10:38:26.416Z,2.57
2019-05-28T10:40:55.708Z,4.10
2019-05-28T10:43:24.803Z,4.53
2019-05-28T10:45:54.186Z,4.83
2019-05-28T10:48:23.340Z,6.10
2019-05-28T10:50:52.700Z,2.87
2019-05-28T10:53:21.797Z,4.77
2019-05-28T10:55:51.002Z,5.10
2019-05-28T10:58:20.242Z,7.00
2019-05-28T11:00:49.541Z,4.30
2019-05-28T11:03:18.720Z,3.97
2019-05-28T11:05:47.941Z,6.97
2019-05-28T11:08:17.242Z,5.90
2019-05-28T11:10:46.514Z,4.70
2019-05-28T11:13:15.629Z,9.10
2019-05-28T11:15:44.734Z,4.03
2019-05-28T11:18:14.143Z,3.27
2019-05-28T11:20:43.200Z,5.30
2019-05-28T11:23:12.313Z,5.33
2019-05-28T11:25:41.711Z,6.10
2019-05-28T11:28:10.910Z,6.73
2019-05-28T11:30:40.140Z,2.10
2019-05-28T11:33:09.323Z,5.13
2019-05-28T11:35:38.420Z,3.60
2019-05-28T11:38:07.799Z,3.30
2019-05-28T11:40:37.012Z,4.07
2019-05-28T11:43:06.348Z,5.43
2019-05-28T11:45:35.405Z,3.93
2019-05-28T11:48:04.667Z,3.73
2019-05-28T11:50:33.941Z,3.73
2019-05-28T11:53:03.151Z,3.97
2019-05-28T11:55:32.551Z,3.30
2019-05-28T11:58:01.638Z,2.77
2019-05-28T12:00:30.991Z,2.80
2019-05-28T12:03:00.312Z,5.67
2019-05-28T12:05:29.705Z,3.30
2019-05-28T12:07:58.762Z,3.70
2019-05-28T12:10:27.838Z,3.17
2019-05-28T12:12:56.928Z,2.30
2019-05-28T12:15:26.542Z,2.80
2019-05-28T12:17:55.630Z,2.20
2019-05-28T12:20:25.077Z,3.27
2019-05-28T12:23:09.843Z,4.00
2019-05-28T12:25:25.386Z,4.97
2019-05-28T12:27:54.442Z,2.63
2019-05-28T12:30:24.012Z,4.23
2019-05-28T12:32:53.022Z,3.50
2019-05-28T12:35:30.473Z,3.10
2019-05-28T12:37:54.200Z,2.93
2019-05-28T12:40:23.640Z,5.53
2019-05-28T12:42:52.791Z,1.90
2019-05-28T12:45:34.851Z,5.57
2019-05-28T12:48:09.756Z,3.77
2019-05-28T12:50:24.207Z,2.13
2019-05-28T12:52:53.319Z,3.50
2019-05-28T12:55:22.805Z,4.53
2019-05-28T12:57:51.924Z,2.30
2019-05-28T13:00:21.921Z,2.47
2019-05-28T13:02:51.379Z,2.03
2019-05-28T13:05:21.587Z,3.67
2019-05-28T13:08:06.690Z,4.20
2019-05-28T13:10:22.603Z,2.80
2019-05-28T13:12:51.786Z,2.17
2019-05-28T13:15:21.059Z,1.77
2019-05-28T13:17:50.309Z,1.77
2019-05-28T13:20:19.568Z,2.60
2019-05-28T13:22:48.766Z,2.90
2019-05-28T13:25:19.057Z,1.67
2019-05-28T13:27:48.160Z,2.60
2019-05-28T13:30:17.730Z,3.07
2019-05-28T13:32:47.356Z,3.13
2019-05-28T13:35:17.643Z,2.70
2019-05-28T13:37:47.174Z,5.07
2019-05-28T13:40:17.163Z,3.00
2019-05-28T13:42:46.529Z,3.47
2019-05-28T13:45:16.142Z,1.80
2019-05-28T13:47:45.327Z,3.33
2019-05-28T13:50:16.171Z,4.23
2019-05-28T13:52:45.233Z,3.40
2019-05-28T13:55:14.781Z,5.50
2019-05-28T13:57:43.984Z,4.17
2019-05-28T14:00:15.010Z,4.83
2019-05-28T14:02:46.424Z,3.70
2019-05-28T14:05:15.501Z,2.37
2019-05-28T14:07:44.573Z,2.97
2019-05-28T14:10:16.078Z,2.90
2019-05-28T14:12:45.150Z,5.90
2019-05-28T14:15:14.557Z,6.03
2019-05-28T14:17:43.892Z,3.60
2019-05-28T14:20:13.701Z,3.53
2019-05-28T14:22:43.111Z,2.80
2019-05-28T14:25:12.141Z,1.93
2019-05-28T14:27:41.318Z,2.03
2019-05-28T14:30:11.856Z,5.23
2019-05-28T14:32:40.930Z,5.67
2019-05-28T14:35:09.994Z,3.20
2019-05-28T14:37:39.092Z,4.63
2019-05-28T14:40:08.598Z,10.70
2019-05-28T14:42:37.813Z,2.37
2019-05-28T14:45:08.250Z,4.20
2019-05-28T14:47:37.329Z,4.03
2019-05-28T14:50:07.700Z,4.20
2019-05-28T14:52:36.819Z,2.93
2019-05-28T14:55:06.861Z,4.10
2019-05-28T14:57:35.955Z,1.93
2019-05-28T15:00:06.245Z,3.07
2019-05-28T15:02:35.351Z,2.90
2019-05-28T15:05:05.640Z,2.50
2019-05-28T15:07:35.008Z,4.27
2019-05-28T15:10:04.792Z,3.10
2019-05-28T15:12:34.216Z,3.00
2019-05-28T15:15:03.524Z,2.73
2019-05-28T15:17:32.586Z,4.60
2019-05-28T15:20:01.683Z,2.13
2019-05-28T15:22:30.848Z,7.27
2019-05-28T15:25:00.049Z,3.80
2019-05-28T15:27:29.427Z,4.70
2019-05-28T15:29:58.743Z,5.70
2019-05-28T15:32:27.830Z,2.87
2019-05-28T15:34:57.058Z,2.60
2019-05-28T15:37:26.384Z,3.07
2019-05-28T15:39:55.448Z,2.23
2019-05-28T15:42:24.670Z,2.63
2019-05-28T15:44:54.010Z,2.17
2019-05-28T15:47:23.217Z,2.67
2019-05-28T15:49:52.309Z,2.87
2019-05-28T15:52:21.594Z,2.60
2019-05-28T15:54:50.909Z,1.40
2019-05-28T15:57:20.217Z,2.80
2019-05-28T15:59:49.353Z,3.60
2019-05-28T16:02:18.431Z,2.17
2019-05-28T16:04:47.777Z,3.50
2019-05-28T16:07:16.849Z,1.53
2019-05-28T16:09:55.513Z,1.43
2019-05-28T16:12:17.328Z,2.20
2019-05-28T16:14:46.780Z,2.20
2019-05-28T16:17:16.001Z,1.77
2019-05-28T16:19:45.062Z,1.83
2019-05-28T16:22:14.151Z,4.23
2019-05-28T16:24:43.384Z,1.23
2019-05-28T16:27:12.658Z,6.33
2019-05-28T16:29:42.898Z,3.30
2019-05-28T16:32:12.131Z,1.10
2019-05-28T16:34:41.544Z,1.50
2019-05-28T16:37:10.751Z,4.03
2019-05-28T16:39:40.005Z,3.33
2019-05-28T16:42:09.192Z,5.57
2019-05-28T16:44:38.454Z,2.30
2019-05-28T16:47:16.565Z,2.90
2019-05-28T16:49:38.763Z,1.80
2019-05-28T16:52:07.861Z,1.93
2019-05-28T16:54:36.930Z,1.47
2019-05-28T16:57:06.248Z,1.17
2019-05-28T16:59:35.327Z,2.70
2019-05-28T17:02:04.572Z,2.80
2019-05-28T17:04:33.900Z,2.23
2019-05-28T17:07:03.227Z,1.30
2019-05-28T17:09:32.378Z,3.13
2019-05-28T17:12:01.489Z,2.37
2019-05-28T17:14:30.862Z,2.13
2019-05-28T17:17:03.084Z,1.23
2019-05-28T17:19:31.120Z,1.47
2019-05-28T17:22:00.335Z,2.33
2019-05-28T17:24:29.522Z,1.50
2019-05-28T17:26:58.881Z,4.80
2019-05-28T17:29:28.079Z,1.40
2019-05-28T17:31:57.315Z,1.50
2019-05-28T17:34:26.574Z,7.63
2019-05-28T17:36:55.686Z,3.00
2019-05-28T17:39:26.640Z,1.80
2019-05-28T17:41:56.070Z,3.27
2019-05-28T17:44:25.519Z,1.90
2019-05-28T17:46:54.653Z,2.03
2019-05-28T17:49:23.965Z,1.60
2019-05-28T17:51:53.136Z,1.40
2019-05-28T17:54:22.213Z,2.52
2019-05-28T17:56:51.460Z,1.65
2019-05-28T17:59:20.730Z,2.30
2019-05-28T18:01:49.933Z,2.23
2019-05-28T18:04:19.082Z,1.70
2019-05-28T18:06:48.420Z,1.53
2019-05-28T18:09:17.681Z,1.70
2019-05-28T18:11:46.904Z,1.43
2019-05-28T18:14:16.151Z,2.13
2019-05-28T18:16:45.284Z,2.00
2019-05-28T18:19:14.458Z,3.17
2019-05-28T18:21:45.107Z,1.70
2019-05-28T18:24:14.252Z,1.40
2019-05-28T18:26:43.480Z,1.30
2019-05-28T18:29:12.589Z,2.20
2019-05-28T18:31:41.703Z,2.00
2019-05-28T18:34:10.821Z,2.80
2019-05-28T18:36:39.974Z,1.87
2019-05-28T18:39:09.236Z,1.80
2019-05-28T18:41:38.438Z,3.83
2019-05-28T18:44:07.645Z,2.50
2019-05-28T18:46:38.295Z,1.60
2019-05-28T18:49:07.500Z,1.70
2019-05-28T18:51:39.013Z,2.57
2019-05-28T18:54:07.547Z,2.63
2019-05-28T18:56:36.622Z,1.87
2019-05-28T18:59:05.960Z,2.80
2019-05-28T19:01:35.113Z,2.90
2019-05-28T19:04:05.425Z,3.10
2019-05-28T19:06:34.538Z,1.67
2019-05-28T19:09:03.862Z,1.40
2019-05-28T19:11:37.916Z,2.20
2019-05-28T19:14:04.305Z,3.00
2019-05-28T19:16:33.650Z,2.03
2019-05-28T19:19:02.755Z,1.60
2019-05-28T19:21:31.863Z,2.07
2019-05-28T19:24:01.129Z,4.23
2019-05-28T19:26:30.273Z,3.30
2019-05-28T19:28:59.434Z,1.73
2019-05-28T19:31:28.835Z,1.97
2019-05-28T19:33:58.098Z,1.70
2019-05-28T19:36:27.671Z,2.03
2019-05-28T19:38:57.635Z,2.67
2019-05-28T19:41:26.913Z,1.87
2019-05-28T19:43:56.083Z,1.83
2019-05-28T19:46:25.164Z,1.80
2019-05-28T19:48:54.371Z,2.23
2019-05-28T19:51:23.522Z,4.30
2019-05-28T19:53:52.661Z,2.03
2019-05-28T19:56:21.936Z,3.10
2019-05-28T19:58:51.176Z,2.60
2019-05-28T20:01:20.511Z,1.57
2019-05-28T20:03:49.597Z,6.23
2019-05-28T20:06:18.885Z,2.43
2019-05-28T20:08:48.116Z,3.33
2019-05-28T20:11:17.266Z,2.13
2019-05-28T20:13:46.631Z,2.03
2019-05-28T20:16:15.850Z,2.23
2019-05-28T20:18:45.340Z,1.80
2019-05-28T20:21:14.561Z,1.60
2019-05-28T20:23:43.716Z,1.87
2019-05-28T20:26:12.847Z,2.70
2019-05-28T20:28:42.048Z,1.80
2019-05-28T20:31:11.195Z,3.77
2019-05-28T20:33:40.381Z,1.73
2019-05-28T20:36:10.048Z,2.20
2019-05-28T20:38:39.307Z,1.73
2019-05-28T20:41:10.135Z,1.47
2019-05-28T20:43:39.440Z,2.07
2019-05-28T20:46:11.245Z,2.10
2019-05-28T20:48:40.579Z,3.03
2019-05-28T20:51:21.039Z,1.70
2019-05-28T20:53:40.831Z,1.80
2019-05-28T20:56:10.222Z,2.30
2019-05-28T20:58:40.672Z,1.90
2019-05-28T21:01:09.988Z,2.33
2019-05-28T21:03:39.194Z,2.10
2019-05-28T21:06:08.459Z,2.33
2019-05-28T21:08:37.946Z,2.43
2019-05-28T21:11:07.347Z,1.60
2019-05-28T21:13:36.678Z,1.90
2019-05-28T21:16:05.735Z,1.63
2019-05-28T21:18:34.961Z,2.13
2019-05-28T21:21:04.224Z,2.00
2019-05-28T21:23:33.455Z,1.70
2019-05-28T21:26:02.632Z,3.20
2019-05-28T21:28:31.883Z,1.70
2019-05-28T21:31:01.155Z,1.83
2019-05-28T21:33:30.255Z,4.67
2019-05-28T21:35:59.587Z,1.73
2019-05-28T21:38:28.886Z,1.90
2019-05-28T21:40:58.166Z,1.67
2019-05-28T21:43:27.388Z,2.93
2019-05-28T21:45:56.516Z,1.70
2019-05-28T21:48:25.794Z,3.87
2019-05-28T21:50:55.010Z,1.50
2019-05-28T21:53:24.161Z,1.87
2019-05-28T21:55:53.470Z,1.63
2019-05-28T21:58:22.513Z,2.17
2019-05-28T22:01:01.981Z,1.60
2019-05-28T22:03:31.149Z,2.03
2019-05-28T22:06:01.444Z,2.70
2019-05-28T22:08:30.542Z,2.27
2019-05-28T22:10:59.713Z,1.50
2019-05-28T22:13:28.784Z,1.50
2019-05-28T22:15:58.079Z,1.80
2019-05-28T22:18:27.217Z,1.97
2019-05-28T22:20:56.675Z,1.60
2019-05-28T22:23:25.834Z,1.90
2019-05-28T22:25:54.904Z,1.73
2019-05-28T22:28:24.247Z,3.67
2019-05-28T22:30:53.374Z,2.30
2019-05-28T22:33:22.425Z,1.60
2019-05-28T22:35:51.706Z,3.30
2019-05-28T22:38:20.741Z,2.00
2019-05-28T22:40:50.192Z,4.37
2019-05-28T22:43:31.078Z,1.70
2019-05-28T22:45:50.429Z,1.90
2019-05-28T22:48:19.653Z,4.20
2019-05-28T22:50:48.790Z,3.60
2019-05-28T22:53:18.041Z,2.10
2019-05-28T22:55:47.541Z,1.73
2019-05-28T22:58:16.675Z,2.77
2019-05-28T23:00:45.784Z,2.50
2019-05-28T23:03:15.488Z,3.87
2019-05-28T23:05:44.582Z,2.43
2019-05-28T23:08:13.779Z,3.47
2019-05-28T23:10:42.840Z,2.03
2019-05-28T23:13:11.947Z,2.20
2019-05-28T23:15:41.044Z,2.50
2019-05-28T23:18:11.010Z,2.83
2019-05-28T23:20:40.377Z,2.37
2019-05-28T23:23:09.740Z,2.10
2019-05-28T23:25:39.047Z,3.40
2019-05-28T23:28:08.245Z,2.43
2019-05-28T23:30:37.328Z,2.40
2019-05-28T23:33:06.623Z,3.00
2019-05-28T23:35:35.837Z,2.90
2019-05-28T23:38:05.015Z,2.07
2019-05-28T23:40:34.250Z,4.27
2019-05-28T23:43:03.640Z,2.07
2019-05-28T23:45:34.529Z,3.13
2019-05-28T23:48:07.783Z,2.73
2019-05-28T23:50:35.052Z,2.77
2019-05-28T23:53:05.547Z,2.60
2019-05-28T23:55:34.695Z,2.20
2019-05-28T23:58:03.793Z,1.87
